Aviation Digital Data Service (ADDS)

Output produced by TAFs form (0847 UTC 26 November 2014)
found at http://aviationweather.gov/adds/tafs/
 
KPUB 260600Z 2606/2706 30015G30KT P6SM SCT150 SCT200 
     FM260630 04010KT P6SM SCT150 SCT200 
     FM261900 13005KT P6SM SCT200